CheckWX is a tool to help pilots better visualize weather data.  It is not intended as a substitute for an official pre-flight weather briefing.

03:32:38 UTC

KSLI METAR
Los Alamitos AAF Airport
Los Alamitos, California, USA
Current

35 mins ago

KSLI 060258Z 00000KT 10SM BKN250 14/12 A3008 RMK AO2A SLP189 T01350124 50001
Observed
Dec-6 @ 02:58 UTC
Visibility
10 SM
Flight Rules
VFR
Cloud Levels
  • Broken at 25,000' AGL
Temperature
14°C / 57°F
Dewpoint
12°C / 54°F
Humidity
88%
Altimeter
30.08" Hg
Pressure
1018.62 hPa
Previous

2 hours ago

KSLI 060158Z 00000KT 10SM BKN250 14/13 A3008 RMK AO2A SLP189 T01430132
Observed
Dec-6 @ 01:58 UTC
Visibility
10 SM
Flight Rules
VFR
Cloud Levels
  • Broken at 25,000' AGL
Temperature
14°C / 57°F
Dewpoint
13°C / 55°F
Humidity
94%
Altimeter
30.08" Hg
Pressure
1018.62 hPa
Previous

3 hours ago

KSLI 060058Z 21004KT 10SM FEW030 BKN250 15/12 A3008 RMK AO2A SLP189 T01520120
Observed
Dec-6 @ 00:58 UTC
Wind
  • 210° at 4 KTS
Visibility
10 SM
Flight Rules
VFR
Cloud Levels
  • Few at 3,000' AGL
  • Broken at 25,000' AGL
Temperature
15°C / 59°F
Dewpoint
12°C / 54°F
Humidity
82%
Altimeter
30.08" Hg
Pressure
1018.62 hPa